sensor_id;sensor_type;location;lat;lon;timestamp;P1;durP1;ratioP1;P2;durP2;ratioP2
46597;SDS011;32318;48.858;8.252;2022-09-25T00:03:41;18.40;;;10.30;;
46597;SDS011;32318;48.858;8.252;2022-09-25T00:11:42;17.65;;;10.63;;
46597;SDS011;32318;48.858;8.252;2022-09-25T00:19:42;18.60;;;10.40;;
46597;SDS011;32318;48.858;8.252;2022-09-25T00:27:51;18.30;;;10.23;;
46597;SDS011;32318;48.858;8.252;2022-09-25T00:35:52;16.38;;;9.82;;
46597;SDS011;32318;48.858;8.252;2022-09-25T00:43:53;17.33;;;9.95;;
46597;SDS011;32318;48.858;8.252;2022-09-25T00:51:56;21.23;;;11.15;;
46597;SDS011;32318;48.858;8.252;2022-09-25T01:00:06;18.58;;;10.45;;
46597;SDS011;32318;48.858;8.252;2022-09-25T01:08:11;22.70;;;10.50;;
46597;SDS011;32318;48.858;8.252;2022-09-25T01:33:23;21.73;;;11.10;;
46597;SDS011;32318;48.858;8.252;2022-09-25T01:49:47;20.45;;;12.40;;
46597;SDS011;32318;48.858;8.252;2022-09-25T01:57:55;23.35;;;12.23;;
46597;SDS011;32318;48.858;8.252;2022-09-25T02:06:03;21.08;;;11.60;;
46597;SDS011;32318;48.858;8.252;2022-09-25T02:14:08;18.35;;;10.50;;
46597;SDS011;32318;48.858;8.252;2022-09-25T02:22:16;20.92;;;11.93;;
46597;SDS011;32318;48.858;8.252;2022-09-25T02:30:22;21.77;;;12.57;;
46597;SDS011;32318;48.858;8.252;2022-09-25T02:38:22;16.67;;;8.90;;
46597;SDS011;32318;48.858;8.252;2022-09-25T02:46:27;18.77;;;8.32;;
46597;SDS011;32318;48.858;8.252;2022-09-25T02:54:34;10.45;;;7.07;;
46597;SDS011;32318;48.858;8.252;2022-09-25T03:02:43;10.40;;;6.28;;
46597;SDS011;32318;48.858;8.252;2022-09-25T03:10:45;8.82;;;4.93;;
46597;SDS011;32318;48.858;8.252;2022-09-25T03:18:46;7.80;;;5.13;;
46597;SDS011;32318;48.858;8.252;2022-09-25T03:26:46;9.83;;;5.03;;
46597;SDS011;32318;48.858;8.252;2022-09-25T03:34:47;8.33;;;5.37;;
46597;SDS011;32318;48.858;8.252;2022-09-25T03:42:47;19.35;;;5.70;;
46597;SDS011;32318;48.858;8.252;2022-09-25T03:50:47;13.73;;;7.50;;
46597;SDS011;32318;48.858;8.252;2022-09-25T03:58:50;14.95;;;7.70;;
46597;SDS011;32318;48.858;8.252;2022-09-25T04:06:53;13.00;;;7.60;;
46597;SDS011;32318;48.858;8.252;2022-09-25T04:14:53;10.82;;;6.78;;
46597;SDS011;32318;48.858;8.252;2022-09-25T04:22:54;14.67;;;7.97;;
46597;SDS011;32318;48.858;8.252;2022-09-25T04:30:54;15.52;;;6.30;;
46597;SDS011;32318;48.858;8.252;2022-09-25T04:38:54;16.10;;;8.05;;
46597;SDS011;32318;48.858;8.252;2022-09-25T04:46:54;12.57;;;7.15;;
46597;SDS011;32318;48.858;8.252;2022-09-25T04:54:55;16.23;;;7.55;;
46597;SDS011;32318;48.858;8.252;2022-09-25T05:02:55;13.88;;;6.95;;
46597;SDS011;32318;48.858;8.252;2022-09-25T05:10:56;13.38;;;6.82;;
46597;SDS011;32318;48.858;8.252;2022-09-25T05:18:56;11.38;;;6.53;;
46597;SDS011;32318;48.858;8.252;2022-09-25T05:26:56;12.02;;;7.20;;
46597;SDS011;32318;48.858;8.252;2022-09-25T05:34:57;20.48;;;7.72;;
46597;SDS011;32318;48.858;8.252;2022-09-25T05:42:57;13.38;;;7.07;;
46597;SDS011;32318;48.858;8.252;2022-09-25T05:50:58;11.40;;;6.63;;
46597;SDS011;32318;48.858;8.252;2022-09-25T05:58:58;10.27;;;6.45;;
46597;SDS011;32318;48.858;8.252;2022-09-25T06:06:59;17.48;;;7.32;;
46597;SDS011;32318;48.858;8.252;2022-09-25T06:15:00;15.88;;;7.35;;
46597;SDS011;32318;48.858;8.252;2022-09-25T06:23:01;13.23;;;7.53;;
46597;SDS011;32318;48.858;8.252;2022-09-25T06:31:02;12.43;;;7.45;;
46597;SDS011;32318;48.858;8.252;2022-09-25T06:39:03;16.88;;;9.25;;
46597;SDS011;32318;48.858;8.252;2022-09-25T06:47:04;20.85;;;9.98;;
46597;SDS011;32318;48.858;8.252;2022-09-25T06:55:04;20.70;;;11.30;;
46597;SDS011;32318;48.858;8.252;2022-09-25T07:03:05;21.40;;;11.93;;
46597;SDS011;32318;48.858;8.252;2022-09-25T07:11:24;22.17;;;12.35;;
46597;SDS011;32318;48.858;8.252;2022-09-25T07:19:30;24.20;;;13.38;;
46597;SDS011;32318;48.858;8.252;2022-09-25T07:27:30;28.02;;;15.90;;
46597;SDS011;32318;48.858;8.252;2022-09-25T07:35:32;25.52;;;14.10;;
46597;SDS011;32318;48.858;8.252;2022-09-25T07:43:33;30.20;;;15.63;;
46597;SDS011;32318;48.858;8.252;2022-09-25T07:51:34;25.65;;;13.50;;
46597;SDS011;32318;48.858;8.252;2022-09-25T07:59:34;25.45;;;14.45;;
46597;SDS011;32318;48.858;8.252;2022-09-25T08:07:34;30.65;;;16.63;;
46597;SDS011;32318;48.858;8.252;2022-09-25T08:15:34;30.05;;;15.18;;
46597;SDS011;32318;48.858;8.252;2022-09-25T08:23:35;30.73;;;15.77;;
46597;SDS011;32318;48.858;8.252;2022-09-25T08:31:35;30.97;;;15.87;;
46597;SDS011;32318;48.858;8.252;2022-09-25T08:39:35;27.80;;;14.35;;
46597;SDS011;32318;48.858;8.252;2022-09-25T08:47:36;24.83;;;14.07;;
46597;SDS011;32318;48.858;8.252;2022-09-25T08:55:55;27.00;;;13.90;;
46597;SDS011;32318;48.858;8.252;2022-09-25T09:04:32;28.23;;;14.40;;
46597;SDS011;32318;48.858;8.252;2022-09-25T09:13:00;30.70;;;14.88;;
46597;SDS011;32318;48.858;8.252;2022-09-25T09:29:32;29.58;;;14.50;;
46597;SDS011;32318;48.858;8.252;2022-09-25T09:37:46;26.85;;;14.75;;
46597;SDS011;32318;48.858;8.252;2022-09-25T09:46:09;27.75;;;14.85;;
46597;SDS011;32318;48.858;8.252;2022-09-25T10:02:53;31.48;;;16.25;;
46597;SDS011;32318;48.858;8.252;2022-09-25T10:10:57;28.38;;;14.10;;
46597;SDS011;32318;48.858;8.252;2022-09-25T10:18:59;29.08;;;14.75;;
46597;SDS011;32318;48.858;8.252;2022-09-25T10:35:23;25.50;;;13.10;;
46597;SDS011;32318;48.858;8.252;2022-09-25T10:43:26;29.05;;;14.10;;
46597;SDS011;32318;48.858;8.252;2022-09-25T10:59:36;38.22;;;18.65;;
46597;SDS011;32318;48.858;8.252;2022-09-25T11:07:37;30.63;;;16.75;;
46597;SDS011;32318;48.858;8.252;2022-09-25T11:15:37;49.67;;;20.52;;
46597;SDS011;32318;48.858;8.252;2022-09-25T11:23:40;43.88;;;20.48;;
46597;SDS011;32318;48.858;8.252;2022-09-25T11:49:13;43.50;;;20.50;;
46597;SDS011;32318;48.858;8.252;2022-09-25T12:30:13;37.90;;;17.67;;
46597;SDS011;32318;48.858;8.252;2022-09-25T12:38:25;31.58;;;15.63;;
46597;SDS011;32318;48.858;8.252;2022-09-25T12:54:49;32.85;;;16.27;;
46597;SDS011;32318;48.858;8.252;2022-09-25T13:11:07;43.97;;;17.10;;
46597;SDS011;32318;48.858;8.252;2022-09-25T13:27:31;26.55;;;12.95;;
46597;SDS011;32318;48.858;8.252;2022-09-25T13:35:41;25.83;;;11.35;;
46597;SDS011;32318;48.858;8.252;2022-09-25T13:43:42;22.92;;;10.98;;
46597;SDS011;32318;48.858;8.252;2022-09-25T13:51:47;19.10;;;9.95;;
46597;SDS011;32318;48.858;8.252;2022-09-25T14:17:49;25.75;;;13.50;;
46597;SDS011;32318;48.858;8.252;2022-09-25T14:26:05;25.80;;;11.18;;
46597;SDS011;32318;48.858;8.252;2022-09-25T14:34:24;19.67;;;10.98;;
46597;SDS011;32318;48.858;8.252;2022-09-25T14:50:56;19.42;;;9.70;;
46597;SDS011;32318;48.858;8.252;2022-09-25T14:59:07;21.65;;;10.07;;
46597;SDS011;32318;48.858;8.252;2022-09-25T15:07:16;16.48;;;8.60;;
46597;SDS011;32318;48.858;8.252;2022-09-25T15:15:19;13.38;;;7.28;;
46597;SDS011;32318;48.858;8.252;2022-09-25T15:23:20;10.80;;;5.32;;
46597;SDS011;32318;48.858;8.252;2022-09-25T15:31:21;11.48;;;5.50;;
46597;SDS011;32318;48.858;8.252;2022-09-25T15:39:23;9.43;;;5.32;;
46597;SDS011;32318;48.858;8.252;2022-09-25T15:47:45;9.10;;;5.28;;
46597;SDS011;32318;48.858;8.252;2022-09-25T15:55:49;10.50;;;6.22;;
46597;SDS011;32318;48.858;8.252;2022-09-25T16:04:01;21.75;;;9.68;;
46597;SDS011;32318;48.858;8.252;2022-09-25T16:28:29;9.38;;;5.38;;
46597;SDS011;32318;48.858;8.252;2022-09-25T16:36:36;10.57;;;4.78;;
46597;SDS011;32318;48.858;8.252;2022-09-25T16:44:40;14.27;;;5.63;;
46597;SDS011;32318;48.858;8.252;2022-09-25T16:52:47;10.63;;;5.07;;
46597;SDS011;32318;48.858;8.252;2022-09-25T17:00:48;9.00;;;4.38;;
46597;SDS011;32318;48.858;8.252;2022-09-25T17:08:49;12.13;;;5.13;;
46597;SDS011;32318;48.858;8.252;2022-09-25T17:16:51;11.25;;;5.35;;
46597;SDS011;32318;48.858;8.252;2022-09-25T17:24:59;9.70;;;4.82;;
46597;SDS011;32318;48.858;8.252;2022-09-25T17:33:01;8.57;;;4.72;;
46597;SDS011;32318;48.858;8.252;2022-09-25T17:41:05;12.90;;;5.35;;
46597;SDS011;32318;48.858;8.252;2022-09-25T17:49:21;6.67;;;4.43;;
46597;SDS011;32318;48.858;8.252;2022-09-25T17:57:22;12.65;;;5.80;;
46597;SDS011;32318;48.858;8.252;2022-09-25T18:05:22;9.40;;;5.10;;
46597;SDS011;32318;48.858;8.252;2022-09-25T18:13:24;14.65;;;6.50;;
46597;SDS011;32318;48.858;8.252;2022-09-25T18:21:25;11.63;;;6.15;;
46597;SDS011;32318;48.858;8.252;2022-09-25T18:29:43;12.23;;;6.60;;
46597;SDS011;32318;48.858;8.252;2022-09-25T18:37:46;10.82;;;5.13;;
46597;SDS011;32318;48.858;8.252;2022-09-25T18:45:49;9.98;;;5.57;;
46597;SDS011;32318;48.858;8.252;2022-09-25T18:53:50;16.33;;;8.27;;
46597;SDS011;32318;48.858;8.252;2022-09-25T19:01:51;30.98;;;13.15;;
46597;SDS011;32318;48.858;8.252;2022-09-25T19:09:53;16.40;;;8.77;;
46597;SDS011;32318;48.858;8.252;2022-09-25T19:17:54;13.07;;;7.43;;
46597;SDS011;32318;48.858;8.252;2022-09-25T19:25:58;13.77;;;6.80;;
46597;SDS011;32318;48.858;8.252;2022-09-25T19:34:01;13.68;;;7.00;;
46597;SDS011;32318;48.858;8.252;2022-09-25T19:42:02;15.77;;;6.97;;
46597;SDS011;32318;48.858;8.252;2022-09-25T19:50:02;17.67;;;7.25;;
46597;SDS011;32318;48.858;8.252;2022-09-25T19:58:08;12.85;;;7.40;;
46597;SDS011;32318;48.858;8.252;2022-09-25T20:06:09;14.02;;;7.85;;
46597;SDS011;32318;48.858;8.252;2022-09-25T20:14:10;10.55;;;6.03;;
46597;SDS011;32318;48.858;8.252;2022-09-25T20:22:10;12.77;;;6.20;;
46597;SDS011;32318;48.858;8.252;2022-09-25T20:30:10;9.80;;;5.25;;
46597;SDS011;32318;48.858;8.252;2022-09-25T20:38:11;10.45;;;5.50;;
46597;SDS011;32318;48.858;8.252;2022-09-25T20:46:12;9.98;;;4.90;;
46597;SDS011;32318;48.858;8.252;2022-09-25T20:54:13;8.75;;;4.18;;
46597;SDS011;32318;48.858;8.252;2022-09-25T21:02:13;8.60;;;4.90;;
46597;SDS011;32318;48.858;8.252;2022-09-25T21:10:13;9.20;;;4.65;;
46597;SDS011;32318;48.858;8.252;2022-09-25T21:18:14;6.97;;;3.85;;
46597;SDS011;32318;48.858;8.252;2022-09-25T21:26:14;8.45;;;4.15;;
46597;SDS011;32318;48.858;8.252;2022-09-25T21:34:15;12.10;;;4.03;;
46597;SDS011;32318;48.858;8.252;2022-09-25T21:42:16;8.32;;;5.15;;
46597;SDS011;32318;48.858;8.252;2022-09-25T21:50:16;15.65;;;5.75;;
46597;SDS011;32318;48.858;8.252;2022-09-25T21:58:23;9.15;;;5.00;;
46597;SDS011;32318;48.858;8.252;2022-09-25T22:06:31;13.70;;;4.22;;
46597;SDS011;32318;48.858;8.252;2022-09-25T22:14:33;11.63;;;4.00;;
46597;SDS011;32318;48.858;8.252;2022-09-25T22:22:34;8.20;;;5.07;;
46597;SDS011;32318;48.858;8.252;2022-09-25T22:30:34;7.90;;;4.57;;
46597;SDS011;32318;48.858;8.252;2022-09-25T22:38:35;10.20;;;4.45;;
46597;SDS011;32318;48.858;8.252;2022-09-25T22:46:35;7.80;;;4.78;;
46597;SDS011;32318;48.858;8.252;2022-09-25T22:54:36;12.93;;;4.80;;
46597;SDS011;32318;48.858;8.252;2022-09-25T23:02:36;12.05;;;4.88;;
46597;SDS011;32318;48.858;8.252;2022-09-25T23:10:37;9.23;;;4.88;;
46597;SDS011;32318;48.858;8.252;2022-09-25T23:18:37;9.90;;;4.68;;
46597;SDS011;32318;48.858;8.252;2022-09-25T23:26:38;8.27;;;4.63;;
46597;SDS011;32318;48.858;8.252;2022-09-25T23:34:38;9.85;;;4.57;;
46597;SDS011;32318;48.858;8.252;2022-09-25T23:42:38;9.65;;;4.80;;
46597;SDS011;32318;48.858;8.252;2022-09-25T23:50:38;6.50;;;4.40;;
46597;SDS011;32318;48.858;8.252;2022-09-25T23:58:39;7.80;;;4.28;;
